sensor_id;sensor_type;location;lat;lon;timestamp;pressure;altitude;pressure_sealevel;temperature;humidity
39455;BME280;25155;41.890;23.446;2023-04-09T00:00:18;92026.78;;;3.08;58.15
39455;BME280;25155;41.890;23.446;2023-04-09T00:02:45;92023.88;;;3.05;58.58
39455;BME280;25155;41.890;23.446;2023-04-09T00:05:12;92029.84;;;3.05;58.17
39455;BME280;25155;41.890;23.446;2023-04-09T00:07:41;92031.66;;;3.05;58.54
39455;BME280;25155;41.890;23.446;2023-04-09T00:10:09;92028.28;;;3.04;58.29
39455;BME280;25155;41.890;23.446;2023-04-09T00:12:36;92027.25;;;3.05;58.34
39455;BME280;25155;41.890;23.446;2023-04-09T00:15:05;92027.25;;;3.05;58.25
39455;BME280;25155;41.890;23.446;2023-04-09T00:17:33;92024.13;;;3.03;58.29
39455;BME280;25155;41.890;23.446;2023-04-09T00:20:00;92030.56;;;3.01;58.65
39455;BME280;25155;41.890;23.446;2023-04-09T00:22:29;92030.22;;;2.97;58.50
39455;BME280;25155;41.890;23.446;2023-04-09T00:24:57;92033.22;;;2.94;58.50
39455;BME280;25155;41.890;23.446;2023-04-09T00:27:25;92031.25;;;2.96;58.56
39455;BME280;25155;41.890;23.446;2023-04-09T00:29:52;92042.59;;;2.95;58.59
39455;BME280;25155;41.890;23.446;2023-04-09T00:32:19;92041.59;;;2.96;58.39
39455;BME280;25155;41.890;23.446;2023-04-09T00:34:47;92042.16;;;2.98;58.41
39455;BME280;25155;41.890;23.446;2023-04-09T00:37:14;92036.97;;;2.98;59.12
39455;BME280;25155;41.890;23.446;2023-04-09T00:39:42;92033.38;;;2.99;59.06
39455;BME280;25155;41.890;23.446;2023-04-09T00:42:10;92033.16;;;3.01;58.92
39455;BME280;25155;41.890;23.446;2023-04-09T00:44:37;92030.31;;;3.02;58.93
39455;BME280;25155;41.890;23.446;2023-04-09T00:47:04;92029.28;;;3.03;58.99
39455;BME280;25155;41.890;23.446;2023-04-09T00:49:32;92029.53;;;3.02;59.00
39455;BME280;25155;41.890;23.446;2023-04-09T00:52:00;92022.31;;;3.04;58.86
39455;BME280;25155;41.890;23.446;2023-04-09T00:54:27;92027.72;;;3.02;58.80
39455;BME280;25155;41.890;23.446;2023-04-09T00:56:56;92035.97;;;2.99;59.42
39455;BME280;25155;41.890;23.446;2023-04-09T00:59:25;92025.94;;;2.91;59.53
39455;BME280;25155;41.890;23.446;2023-04-09T01:01:52;92038.91;;;2.91;59.14
39455;BME280;25155;41.890;23.446;2023-04-09T01:04:20;92021.22;;;2.88;59.03
39455;BME280;25155;41.890;23.446;2023-04-09T01:06:51;92019.44;;;2.88;58.92
39455;BME280;25155;41.890;23.446;2023-04-09T01:09:23;92022.00;;;2.88;59.24
39455;BME280;25155;41.890;23.446;2023-04-09T01:12:01;92023.81;;;2.88;59.24
39455;BME280;25155;41.890;23.446;2023-04-09T01:14:38;92017.28;;;2.85;58.95
39455;BME280;25155;41.890;23.446;2023-04-09T01:17:14;92022.16;;;2.82;59.02
39455;BME280;25155;41.890;23.446;2023-04-09T01:19:49;92026.78;;;2.80;59.30
39455;BME280;25155;41.890;23.446;2023-04-09T01:22:30;92030.59;;;2.77;59.37
39455;BME280;25155;41.890;23.446;2023-04-09T01:25:23;92033.31;;;2.70;59.16
39455;BME280;25155;41.890;23.446;2023-04-09T01:28:04;92034.91;;;2.71;59.79
39455;BME280;25155;41.890;23.446;2023-04-09T01:30:35;92044.72;;;2.69;59.17
39455;BME280;25155;41.890;23.446;2023-04-09T01:33:03;92039.06;;;2.72;59.40
39455;BME280;25155;41.890;23.446;2023-04-09T01:35:32;92037.50;;;2.71;59.37
39455;BME280;25155;41.890;23.446;2023-04-09T01:38:00;92032.53;;;2.70;59.36
39455;BME280;25155;41.890;23.446;2023-04-09T01:40:28;92032.31;;;2.71;59.68
39455;BME280;25155;41.890;23.446;2023-04-09T01:42:57;92035.69;;;2.72;60.07
39455;BME280;25155;41.890;23.446;2023-04-09T01:45:27;92030.28;;;2.73;59.84
39455;BME280;25155;41.890;23.446;2023-04-09T01:47:54;92032.88;;;2.73;59.78
39455;BME280;25155;41.890;23.446;2023-04-09T01:50:22;92036.22;;;2.74;59.98
39455;BME280;25155;41.890;23.446;2023-04-09T01:52:50;92031.28;;;2.72;59.86
39455;BME280;25155;41.890;23.446;2023-04-09T01:55:18;92038.28;;;2.72;60.15
39455;BME280;25155;41.890;23.446;2023-04-09T01:57:45;92044.22;;;2.72;59.64
39455;BME280;25155;41.890;23.446;2023-04-09T02:00:13;92033.88;;;2.72;59.86
39455;BME280;25155;41.890;23.446;2023-04-09T02:02:45;92030.50;;;2.72;60.07
39455;BME280;25155;41.890;23.446;2023-04-09T02:05:17;92037.03;;;2.75;60.06
39455;BME280;25155;41.890;23.446;2023-04-09T02:07:52;92037.50;;;2.71;60.39
39455;BME280;25155;41.890;23.446;2023-04-09T02:10:21;92032.53;;;2.70;60.48
39455;BME280;25155;41.890;23.446;2023-04-09T02:12:51;92027.59;;;2.68;60.20
39455;BME280;25155;41.890;23.446;2023-04-09T02:15:18;92026.91;;;2.73;60.57
39455;BME280;25155;41.890;23.446;2023-04-09T02:17:47;92031.88;;;2.75;60.45
39455;BME280;25155;41.890;23.446;2023-04-09T02:20:16;92027.69;;;2.73;60.64
39455;BME280;25155;41.890;23.446;2023-04-09T02:22:43;92026.59;;;2.69;61.29
39455;BME280;25155;41.890;23.446;2023-04-09T02:25:11;92013.66;;;2.58;61.36
39455;BME280;25155;41.890;23.446;2023-04-09T02:27:39;92015.47;;;2.57;61.08
39455;BME280;25155;41.890;23.446;2023-04-09T02:30:07;92018.75;;;2.52;61.79
39455;BME280;25155;41.890;23.446;2023-04-09T02:32:34;92018.44;;;2.49;61.71
39455;BME280;25155;41.890;23.446;2023-04-09T02:35:03;92018.88;;;2.46;62.43
39455;BME280;25155;41.890;23.446;2023-04-09T02:37:31;92015.75;;;2.44;62.40
39455;BME280;25155;41.890;23.446;2023-04-09T02:39:58;92017.22;;;2.40;62.30
39455;BME280;25155;41.890;23.446;2023-04-09T02:42:25;92015.88;;;2.37;61.81
39455;BME280;25155;41.890;23.446;2023-04-09T02:44:53;92013.06;;;2.39;62.37
39455;BME280;25155;41.890;23.446;2023-04-09T02:47:20;92016.19;;;2.41;62.22
39455;BME280;25155;41.890;23.446;2023-04-09T02:49:48;92011.34;;;2.44;61.94
39455;BME280;25155;41.890;23.446;2023-04-09T02:52:16;92011.94;;;2.46;61.71
39455;BME280;25155;41.890;23.446;2023-04-09T02:54:44;92009.34;;;2.46;62.36
39455;BME280;25155;41.890;23.446;2023-04-09T02:57:12;92014.75;;;2.45;62.71
39455;BME280;25155;41.890;23.446;2023-04-09T02:59:39;92005.72;;;2.47;62.13
39455;BME280;25155;41.890;23.446;2023-04-09T03:02:07;92009.66;;;2.50;62.25
39455;BME280;25155;41.890;23.446;2023-04-09T03:04:34;92010.75;;;2.54;61.79
39455;BME280;25155;41.890;23.446;2023-04-09T03:07:01;92007.63;;;2.52;61.71
39455;BME280;25155;41.890;23.446;2023-04-09T03:09:30;92006.53;;;2.48;62.86
39455;BME280;25155;41.890;23.446;2023-04-09T03:11:57;92007.66;;;2.40;63.84
39455;BME280;25155;41.890;23.446;2023-04-09T03:14:24;92007.47;;;2.30;64.25
39455;BME280;25155;41.890;23.446;2023-04-09T03:16:51;92017.03;;;2.17;65.79
39455;BME280;25155;41.890;23.446;2023-04-09T03:19:19;92011.53;;;2.02;66.46
39455;BME280;25155;41.890;23.446;2023-04-09T03:21:46;92021.09;;;2.02;66.35
39455;BME280;25155;41.890;23.446;2023-04-09T03:24:14;92021.22;;;1.95;66.11
39455;BME280;25155;41.890;23.446;2023-04-09T03:26:42;92018.16;;;1.86;67.03
39455;BME280;25155;41.890;23.446;2023-04-09T03:29:09;92006.28;;;1.85;66.84
39455;BME280;25155;41.890;23.446;2023-04-09T03:31:36;92004.56;;;1.91;66.38
39455;BME280;25155;41.890;23.446;2023-04-09T03:34:03;92004.25;;;1.99;65.83
39455;BME280;25155;41.890;23.446;2023-04-09T03:36:31;92005.69;;;2.07;65.31
39455;BME280;25155;41.890;23.446;2023-04-09T03:38:58;92006.56;;;2.12;64.95
39455;BME280;25155;41.890;23.446;2023-04-09T03:41:26;92007.13;;;2.14;64.66
39455;BME280;25155;41.890;23.446;2023-04-09T03:43:55;92015.13;;;2.13;64.41
39455;BME280;25155;41.890;23.446;2023-04-09T03:46:22;92017.16;;;2.11;64.14
39455;BME280;25155;41.890;23.446;2023-04-09T03:48:50;92008.84;;;2.09;64.15
39455;BME280;25155;41.890;23.446;2023-04-09T03:51:17;92010.97;;;2.12;64.05
39455;BME280;25155;41.890;23.446;2023-04-09T03:53:44;92007.34;;;2.13;64.25
39455;BME280;25155;41.890;23.446;2023-04-09T03:56:11;92007.13;;;2.14;63.90
39455;BME280;25155;41.890;23.446;2023-04-09T03:58:38;92006.91;;;2.16;63.88
39455;BME280;25155;41.890;23.446;2023-04-09T04:01:07;92007.94;;;2.15;63.66
39455;BME280;25155;41.890;23.446;2023-04-09T04:03:34;92011.06;;;2.17;63.59
39455;BME280;25155;41.890;23.446;2023-04-09T04:06:02;92010.31;;;2.16;63.58
39455;BME280;25155;41.890;23.446;2023-04-09T04:08:29;92011.06;;;2.17;64.04
39455;BME280;25155;41.890;23.446;2023-04-09T04:11:02;92012.09;;;2.04;63.95
39455;BME280;25155;41.890;23.446;2023-04-09T04:13:29;92015.56;;;1.98;64.42
39455;BME280;25155;41.890;23.446;2023-04-09T04:15:56;92014.03;;;1.97;64.34
39455;BME280;25155;41.890;23.446;2023-04-09T04:18:25;92008.63;;;1.98;64.03
39455;BME280;25155;41.890;23.446;2023-04-09T04:20:52;92014.91;;;2.03;63.57
39455;BME280;25155;41.890;23.446;2023-04-09T04:23:19;92016.03;;;2.07;63.76
39455;BME280;25155;41.890;23.446;2023-04-09T04:25:46;92017.59;;;2.08;63.66
39455;BME280;25155;41.890;23.446;2023-04-09T04:28:14;92014.78;;;2.09;63.26
39455;BME280;25155;41.890;23.446;2023-04-09T04:30:41;92020.50;;;2.11;63.17
39455;BME280;25155;41.890;23.446;2023-04-09T04:33:08;92021.53;;;2.10;62.85
39455;BME280;25155;41.890;23.446;2023-04-09T04:35:37;92026.28;;;2.02;63.37
39455;BME280;25155;41.890;23.446;2023-04-09T04:38:04;92023.81;;;1.95;63.51
39455;BME280;25155;41.890;23.446;2023-04-09T04:40:31;92019.88;;;1.92;63.47
39455;BME280;25155;41.890;23.446;2023-04-09T04:42:58;92019.88;;;1.92;63.46
39455;BME280;25155;41.890;23.446;2023-04-09T04:45:25;92012.66;;;1.94;63.14
39455;BME280;25155;41.890;23.446;2023-04-09T04:47:52;92017.72;;;2.01;63.26
39455;BME280;25155;41.890;23.446;2023-04-09T04:50:19;92019.06;;;2.04;63.23
39455;BME280;25155;41.890;23.446;2023-04-09T04:52:48;92021.66;;;2.04;63.57
39455;BME280;25155;41.890;23.446;2023-04-09T04:55:15;92030.28;;;2.09;63.57
39455;BME280;25155;41.890;23.446;2023-04-09T04:57:43;92030.06;;;2.11;63.73
39455;BME280;25155;41.890;23.446;2023-04-09T05:00:11;92030.19;;;2.16;63.78
39455;BME280;25155;41.890;23.446;2023-04-09T05:02:38;92029.84;;;2.24;63.63
39455;BME280;25155;41.890;23.446;2023-04-09T05:05:06;92032.06;;;2.32;63.75
39455;BME280;25155;41.890;23.446;2023-04-09T05:07:33;92032.75;;;2.40;64.04
39455;BME280;25155;41.890;23.446;2023-04-09T05:10:03;92032.03;;;2.44;63.60
39455;BME280;25155;41.890;23.446;2023-04-09T05:12:30;92042.50;;;2.49;64.27
39455;BME280;25155;41.890;23.446;2023-04-09T05:14:58;92055.31;;;2.44;65.65
39455;BME280;25155;41.890;23.446;2023-04-09T05:17:25;92043.31;;;2.38;65.91
39455;BME280;25155;41.890;23.446;2023-04-09T05:19:54;92046.91;;;2.37;65.74
39455;BME280;25155;41.890;23.446;2023-04-09T05:22:22;92048.81;;;2.42;65.36
39455;BME280;25155;41.890;23.446;2023-04-09T05:24:50;92041.72;;;2.49;64.95
39455;BME280;25155;41.890;23.446;2023-04-09T05:27:19;92037.66;;;2.53;64.68
39455;BME280;25155;41.890;23.446;2023-04-09T05:29:48;92039.09;;;2.61;64.60
39455;BME280;25155;41.890;23.446;2023-04-09T05:32:16;92041.78;;;2.66;64.56
39455;BME280;25155;41.890;23.446;2023-04-09T05:34:43;92043.59;;;2.65;65.10
39455;BME280;25155;41.890;23.446;2023-04-09T05:37:10;92044.03;;;2.62;65.71
39455;BME280;25155;41.890;23.446;2023-04-09T05:39:37;92044.13;;;2.67;65.88
39455;BME280;25155;41.890;23.446;2023-04-09T05:42:05;92041.00;;;2.65;66.00
39455;BME280;25155;41.890;23.446;2023-04-09T05:44:33;92041.44;;;2.62;66.11
39455;BME280;25155;41.890;23.446;2023-04-09T05:47:00;92043.25;;;2.62;66.41
39455;BME280;25155;41.890;23.446;2023-04-09T05:49:28;92045.63;;;2.63;66.55
39455;BME280;25155;41.890;23.446;2023-04-09T05:51:55;92042.34;;;2.68;66.15
39455;BME280;25155;41.890;23.446;2023-04-09T05:54:23;92040.88;;;2.72;66.49
39455;BME280;25155;41.890;23.446;2023-04-09T05:56:51;92042.22;;;2.75;66.78
39455;BME280;25155;41.890;23.446;2023-04-09T05:59:18;92050.63;;;2.82;66.95
39455;BME280;25155;41.890;23.446;2023-04-09T06:01:47;92055.25;;;2.80;67.11
39455;BME280;25155;41.890;23.446;2023-04-09T06:04:14;92046.81;;;2.84;67.26
39455;BME280;25155;41.890;23.446;2023-04-09T06:06:41;92047.91;;;2.88;67.62
39455;BME280;25155;41.890;23.446;2023-04-09T06:09:08;92048.53;;;2.96;66.93
39455;BME280;25155;41.890;23.446;2023-04-09T06:11:35;92049.22;;;3.03;67.03
39455;BME280;25155;41.890;23.446;2023-04-09T06:14:03;92060.13;;;3.05;67.02
39455;BME280;25155;41.890;23.446;2023-04-09T06:16:30;92056.63;;;3.11;66.96
39455;BME280;25155;41.890;23.446;2023-04-09T06:19:01;92056.50;;;3.18;66.73
39455;BME280;25155;41.890;23.446;2023-04-09T06:21:28;92058.47;;;3.27;65.91
39455;BME280;25155;41.890;23.446;2023-04-09T06:23:55;92061.38;;;3.31;65.42
39455;BME280;25155;41.890;23.446;2023-04-09T06:26:23;92059.34;;;3.33;65.05
39455;BME280;25155;41.890;23.446;2023-04-09T06:28:50;92064.59;;;3.38;64.84
39455;BME280;25155;41.890;23.446;2023-04-09T06:31:18;92062.56;;;3.40;65.08
39455;BME280;25155;41.890;23.446;2023-04-09T06:33:45;92064.69;;;3.43;64.92
39455;BME280;25155;41.890;23.446;2023-04-09T06:36:14;92060.63;;;3.47;64.53
39455;BME280;25155;41.890;23.446;2023-04-09T06:38:42;92068.00;;;3.56;64.54
39455;BME280;25155;41.890;23.446;2023-04-09T06:41:09;92071.78;;;3.65;65.09
39455;BME280;25155;41.890;23.446;2023-04-09T06:43:37;92070.75;;;3.66;64.58
39455;BME280;25155;41.890;23.446;2023-04-09T06:46:05;92065.34;;;3.68;64.38
39455;BME280;25155;41.890;23.446;2023-04-09T06:48:32;92065.19;;;3.74;64.50
39455;BME280;25155;41.890;23.446;2023-04-09T06:50:59;92067.53;;;3.76;64.59
39455;BME280;25155;41.890;23.446;2023-04-09T06:53:29;92066.03;;;3.80;64.47
39455;BME280;25155;41.890;23.446;2023-04-09T06:55:56;92066.44;;;3.89;64.46
39455;BME280;25155;41.890;23.446;2023-04-09T06:58:24;92065.97;;;3.92;64.24
39455;BME280;25155;41.890;23.446;2023-04-09T07:00:51;92070.44;;;3.96;64.30
39455;BME280;25155;41.890;23.446;2023-04-09T07:03:18;92065.00;;;3.98;63.75
39455;BME280;25155;41.890;23.446;2023-04-09T07:05:45;92062.72;;;4.01;64.02
39455;BME280;25155;41.890;23.446;2023-04-09T07:08:13;92064.69;;;4.11;63.47
39455;BME280;25155;41.890;23.446;2023-04-09T07:10:41;92064.91;;;4.10;63.60
39455;BME280;25155;41.890;23.446;2023-04-09T07:13:08;92066.88;;;4.19;64.01
39455;BME280;25155;41.890;23.446;2023-04-09T07:15:36;92063.41;;;4.31;63.54
39455;BME280;25155;41.890;23.446;2023-04-09T07:18:03;92063.22;;;4.37;62.57
39455;BME280;25155;41.890;23.446;2023-04-09T07:20:30;92067.94;;;4.41;62.09
39455;BME280;25155;41.890;23.446;2023-04-09T07:22:58;92068.25;;;4.44;61.44
39455;BME280;25155;41.890;23.446;2023-04-09T07:25:26;92066.34;;;4.56;62.47
39455;BME280;25155;41.890;23.446;2023-04-09T07:27:54;92056.97;;;4.55;61.88
39455;BME280;25155;41.890;23.446;2023-04-09T07:30:22;92063.63;;;4.68;61.54
39455;BME280;25155;41.890;23.446;2023-04-09T07:32:49;92061.50;;;4.87;61.31
39455;BME280;25155;41.890;23.446;2023-04-09T07:35:16;92050.44;;;4.97;61.40
39455;BME280;25155;41.890;23.446;2023-04-09T07:37:43;92061.50;;;5.09;61.24
39455;BME280;25155;41.890;23.446;2023-04-09T07:40:11;92048.31;;;5.16;61.21
39455;BME280;25155;41.890;23.446;2023-04-09T07:42:42;92046.34;;;5.28;60.88
39455;BME280;25155;41.890;23.446;2023-04-09T07:45:10;92048.50;;;5.37;60.52
39455;BME280;25155;41.890;23.446;2023-04-09T07:47:38;92028.81;;;5.41;60.54
39455;BME280;25155;41.890;23.446;2023-04-09T07:50:07;92041.38;;;5.49;59.51
39455;BME280;25155;41.890;23.446;2023-04-09T07:52:34;92045.63;;;5.60;59.66
39455;BME280;25155;41.890;23.446;2023-04-09T07:55:01;92056.63;;;5.67;58.04
39455;BME280;25155;41.890;23.446;2023-04-09T07:57:30;92047.78;;;5.68;57.32
39455;BME280;25155;41.890;23.446;2023-04-09T07:59:57;92057.16;;;5.70;57.50
39455;BME280;25155;41.890;23.446;2023-04-09T08:02:26;92057.59;;;5.61;57.03
39455;BME280;25155;41.890;23.446;2023-04-09T08:04:53;92055.56;;;5.68;57.63
39455;BME280;25155;41.890;23.446;2023-04-09T08:07:20;92053.81;;;5.74;57.34
39455;BME280;25155;41.890;23.446;2023-04-09T08:09:47;92059.88;;;5.85;57.25
39455;BME280;25155;41.890;23.446;2023-04-09T08:12:14;92055.75;;;5.89;55.85
39455;BME280;25155;41.890;23.446;2023-04-09T08:14:41;92057.28;;;5.90;55.25
39455;BME280;25155;41.890;23.446;2023-04-09T08:17:08;92047.53;;;6.02;56.60
39455;BME280;25155;41.890;23.446;2023-04-09T08:19:37;92056.19;;;6.18;56.38
39455;BME280;25155;41.890;23.446;2023-04-09T08:22:04;92056.84;;;6.41;56.94
39455;BME280;25155;41.890;23.446;2023-04-09T08:24:31;92044.22;;;6.60;54.97
39455;BME280;25155;41.890;23.446;2023-04-09T08:26:59;92054.16;;;6.68;52.90
39455;BME280;25155;41.890;23.446;2023-04-09T08:29:26;92052.34;;;6.79;53.09
39455;BME280;25155;41.890;23.446;2023-04-09T08:31:53;92035.22;;;6.88;53.01
39455;BME280;25155;41.890;23.446;2023-04-09T08:34:20;92041.47;;;6.97;53.49
39455;BME280;25155;41.890;23.446;2023-04-09T08:36:49;92039.69;;;7.08;53.43
39455;BME280;25155;41.890;23.446;2023-04-09T08:39:16;92036.59;;;7.22;53.04
39455;BME280;25155;41.890;23.446;2023-04-09T08:41:45;92037.16;;;7.34;52.60
39455;BME280;25155;41.890;23.446;2023-04-09T08:44:13;92037.97;;;7.45;52.24
39455;BME280;25155;41.890;23.446;2023-04-09T08:46:40;92027.81;;;7.48;52.38
39455;BME280;25155;41.890;23.446;2023-04-09T08:49:08;92034.88;;;7.53;50.34
39455;BME280;25155;41.890;23.446;2023-04-09T08:51:35;92037.47;;;7.43;49.81
39455;BME280;25155;41.890;23.446;2023-04-09T08:54:05;92037.16;;;7.34;49.59
39455;BME280;25155;41.890;23.446;2023-04-09T08:56:33;92037.22;;;7.44;50.22
39455;BME280;25155;41.890;23.446;2023-04-09T08:59:00;92035.13;;;7.57;51.21
39455;BME280;25155;41.890;23.446;2023-04-09T09:01:28;92032.50;;;7.62;49.82
39455;BME280;25155;41.890;23.446;2023-04-09T09:03:59;92030.41;;;7.59;49.58
39455;BME280;25155;41.890;23.446;2023-04-09T09:06:29;92027.31;;;7.62;49.68
39455;BME280;25155;41.890;23.446;2023-04-09T09:09:06;92028.34;;;7.66;50.08
39455;BME280;25155;41.890;23.446;2023-04-09T09:11:35;92032.00;;;7.75;50.06
39455;BME280;25155;41.890;23.446;2023-04-09T09:14:03;92023.91;;;7.87;50.04
39455;BME280;25155;41.890;23.446;2023-04-09T09:16:32;92021.84;;;7.94;50.56
39455;BME280;25155;41.890;23.446;2023-04-09T09:19:00;92024.19;;;8.01;48.79
39455;BME280;25155;41.890;23.446;2023-04-09T09:21:28;92022.06;;;8.08;49.62
39455;BME280;25155;41.890;23.446;2023-04-09T09:23:55;92010.59;;;8.14;50.67
39455;BME280;25155;41.890;23.446;2023-04-09T09:26:25;92017.88;;;8.27;50.94
39455;BME280;25155;41.890;23.446;2023-04-09T09:28:54;92012.09;;;8.41;50.98
39455;BME280;25155;41.890;23.446;2023-04-09T09:31:23;92012.31;;;8.55;50.59
39455;BME280;25155;41.890;23.446;2023-04-09T09:33:51;92007.84;;;8.66;51.34
39455;BME280;25155;41.890;23.446;2023-04-09T09:36:32;92007.81;;;8.71;50.90
39455;BME280;25155;41.890;23.446;2023-04-09T09:39:00;92005.44;;;8.79;50.41
39455;BME280;25155;41.890;23.446;2023-04-09T09:41:35;92004.38;;;8.86;49.91
39455;BME280;25155;41.890;23.446;2023-04-09T09:44:03;92003.56;;;8.90;49.00
39455;BME280;25155;41.890;23.446;2023-04-09T09:46:34;91992.84;;;8.97;49.85
39455;BME280;25155;41.890;23.446;2023-04-09T09:49:02;91989.38;;;9.12;49.47
39455;BME280;25155;41.890;23.446;2023-04-09T09:51:31;91982.78;;;9.19;49.36
39455;BME280;25155;41.890;23.446;2023-04-09T09:53:59;91984.53;;;9.29;48.91
39455;BME280;25155;41.890;23.446;2023-04-09T09:56:30;91987.16;;;9.29;48.32
39455;BME280;25155;41.890;23.446;2023-04-09T09:59:06;91987.69;;;9.31;48.51
39455;BME280;25155;41.890;23.446;2023-04-09T10:01:33;91986.28;;;9.44;47.99
39455;BME280;25155;41.890;23.446;2023-04-09T10:04:01;91984.19;;;9.46;47.27
39455;BME280;25155;41.890;23.446;2023-04-09T10:06:31;91981.81;;;9.50;46.38
39455;BME280;25155;41.890;23.446;2023-04-09T10:09:03;91972.31;;;9.59;47.74
39455;BME280;25155;41.890;23.446;2023-04-09T10:11:32;91966.16;;;9.74;48.72
39455;BME280;25155;41.890;23.446;2023-04-09T10:13:59;91968.13;;;9.92;47.97
39455;BME280;25155;41.890;23.446;2023-04-09T10:16:29;91970.44;;;9.94;47.56
39455;BME280;25155;41.890;23.446;2023-04-09T10:18:57;91973.75;;;10.05;47.72
39455;BME280;25155;41.890;23.446;2023-04-09T10:21:33;91969.53;;;10.09;45.36
39455;BME280;25155;41.890;23.446;2023-04-09T10:24:03;91969.06;;;10.02;44.35
39455;BME280;25155;41.890;23.446;2023-04-09T10:26:33;91975.63;;;10.04;45.27
39455;BME280;25155;41.890;23.446;2023-04-09T10:29:05;91968.81;;;10.03;46.61
39455;BME280;25155;41.890;23.446;2023-04-09T10:31:51;91975.06;;;10.07;46.78
39455;BME280;25155;41.890;23.446;2023-04-09T10:34:21;91975.47;;;10.20;46.54
39455;BME280;25155;41.890;23.446;2023-04-09T10:36:52;91972.50;;;10.26;44.98
39455;BME280;25155;41.890;23.446;2023-04-09T10:39:19;91963.34;;;10.24;45.54
39455;BME280;25155;41.890;23.446;2023-04-09T10:41:47;91957.00;;;10.30;46.09
39455;BME280;25155;41.890;23.446;2023-04-09T10:44:20;91964.34;;;10.33;46.19
39455;BME280;25155;41.890;23.446;2023-04-09T10:46:48;91959.53;;;10.45;46.12
39455;BME280;25155;41.890;23.446;2023-04-09T10:49:19;91954.22;;;10.51;45.90
39455;BME280;25155;41.890;23.446;2023-04-09T10:51:50;91966.03;;;10.48;44.59
39455;BME280;25155;41.890;23.446;2023-04-09T10:54:37;91958.72;;;10.45;46.10
39455;BME280;25155;41.890;23.446;2023-04-09T10:57:12;91950.16;;;10.39;45.30
39455;BME280;25155;41.890;23.446;2023-04-09T10:59:40;91954.84;;;10.42;45.94
39455;BME280;25155;41.890;23.446;2023-04-09T11:02:30;91944.72;;;10.31;43.86
39455;BME280;25155;41.890;23.446;2023-04-09T11:05:10;91948.16;;;10.26;45.26
39455;BME280;25155;41.890;23.446;2023-04-09T11:07:46;91944.47;;;10.27;44.90
39455;BME280;25155;41.890;23.446;2023-04-09T11:10:13;91933.13;;;10.37;46.02
39455;BME280;25155;41.890;23.446;2023-04-09T11:12:40;91938.03;;;10.43;46.75
39455;BME280;25155;41.890;23.446;2023-04-09T11:15:14;91941.13;;;10.51;46.17
39455;BME280;25155;41.890;23.446;2023-04-09T11:17:44;91935.19;;;10.64;45.90
39455;BME280;25155;41.890;23.446;2023-04-09T11:20:12;91934.78;;;10.76;44.17
39455;BME280;25155;41.890;23.446;2023-04-09T11:22:39;91936.75;;;10.65;42.84
39455;BME280;25155;41.890;23.446;2023-04-09T11:25:07;91938.84;;;10.44;42.46
39455;BME280;25155;41.890;23.446;2023-04-09T11:27:37;91929.63;;;10.17;41.33
39455;BME280;25155;41.890;23.446;2023-04-09T11:30:05;91928.97;;;10.06;42.35
39455;BME280;25155;41.890;23.446;2023-04-09T11:32:33;91928.44;;;10.09;42.92
39455;BME280;25155;41.890;23.446;2023-04-09T11:35:01;91928.88;;;10.17;43.60
39455;BME280;25155;41.890;23.446;2023-04-09T11:37:29;91919.97;;;10.18;43.73
39455;BME280;25155;41.890;23.446;2023-04-09T11:39:58;91914.19;;;10.21;43.89
39455;BME280;25155;41.890;23.446;2023-04-09T11:42:30;91914.66;;;10.23;43.35
39455;BME280;25155;41.890;23.446;2023-04-09T11:44:57;91918.56;;;10.25;42.74
39455;BME280;25155;41.890;23.446;2023-04-09T11:47:26;91916.84;;;10.16;41.28
39455;BME280;25155;41.890;23.446;2023-04-09T11:49:53;91917.38;;;9.88;43.94
39455;BME280;25155;41.890;23.446;2023-04-09T11:52:22;91914.09;;;9.72;44.74
39455;BME280;25155;41.890;23.446;2023-04-09T11:54:49;91913.44;;;9.62;44.87
39455;BME280;25155;41.890;23.446;2023-04-09T11:57:16;91909.91;;;9.42;45.76
39455;BME280;25155;41.890;23.446;2023-04-09T11:59:43;91913.59;;;9.07;48.36
39455;BME280;25155;41.890;23.446;2023-04-09T12:02:11;91920.91;;;9.05;47.08
39455;BME280;25155;41.890;23.446;2023-04-09T12:04:48;91909.81;;;8.73;49.09
39455;BME280;25155;41.890;23.446;2023-04-09T12:07:15;91914.88;;;8.54;49.45
39455;BME280;25155;41.890;23.446;2023-04-09T12:09:47;91922.28;;;8.32;51.13
39455;BME280;25155;41.890;23.446;2023-04-09T12:12:17;91917.13;;;8.16;50.66
39455;BME280;25155;41.890;23.446;2023-04-09T12:14:45;91919.75;;;8.06;51.22
39455;BME280;25155;41.890;23.446;2023-04-09T12:17:13;91923.13;;;8.12;51.27
39455;BME280;25155;41.890;23.446;2023-04-09T12:19:40;91930.16;;;8.16;52.20
39455;BME280;25155;41.890;23.446;2023-04-09T12:22:07;91926.28;;;8.03;54.32
39455;BME280;25155;41.890;23.446;2023-04-09T12:24:34;91919.78;;;8.01;55.96
39455;BME280;25155;41.890;23.446;2023-04-09T12:27:03;91927.13;;;7.83;56.94
39455;BME280;25155;41.890;23.446;2023-04-09T12:29:30;91927.38;;;7.82;56.62
39455;BME280;25155;41.890;23.446;2023-04-09T12:31:58;91927.16;;;7.63;58.50
39455;BME280;25155;41.890;23.446;2023-04-09T12:34:25;91920.13;;;7.43;59.10
39455;BME280;25155;41.890;23.446;2023-04-09T12:36:52;91912.03;;;7.39;59.45
39455;BME280;25155;41.890;23.446;2023-04-09T12:39:20;91916.72;;;7.47;58.70
39455;BME280;25155;41.890;23.446;2023-04-09T12:41:47;91916.47;;;7.64;58.24
39455;BME280;25155;41.890;23.446;2023-04-09T12:44:15;91912.28;;;7.63;58.29
39455;BME280;25155;41.890;23.446;2023-04-09T12:46:42;91912.53;;;7.57;58.23
39455;BME280;25155;41.890;23.446;2023-04-09T12:49:09;91914.09;;;7.47;58.87
39455;BME280;25155;41.890;23.446;2023-04-09T12:51:37;91911.00;;;7.40;61.46
39455;BME280;25155;41.890;23.446;2023-04-09T12:54:04;91914.59;;;7.29;61.31
39455;BME280;25155;41.890;23.446;2023-04-09T12:56:31;91906.53;;;7.30;61.51
39455;BME280;25155;41.890;23.446;2023-04-09T12:58:58;91911.22;;;7.28;62.46
39455;BME280;25155;41.890;23.446;2023-04-09T13:01:27;91911.47;;;7.27;62.84
39455;BME280;25155;41.890;23.446;2023-04-09T13:03:55;91921.66;;;7.23;63.04
39455;BME280;25155;41.890;23.446;2023-04-09T13:06:22;91912.00;;;7.24;62.15